sensor_id;sensor_type;location;lat;lon;timestamp;pressure;altitude;pressure_sealevel;temperature;humidity
21902;BME280;11115;46.038;14.612;2022-09-09T00:00:25;98311.78;;;18.61;100.00
21902;BME280;11115;46.038;14.612;2022-09-09T00:03:26;98328.50;;;18.57;100.00
21902;BME280;11115;46.038;14.612;2022-09-09T00:06:21;98335.00;;;18.61;100.00
21902;BME280;11115;46.038;14.612;2022-09-09T00:09:21;98338.28;;;18.63;100.00
21902;BME280;11115;46.038;14.612;2022-09-09T00:12:10;98322.19;;;18.60;100.00
21902;BME280;11115;46.038;14.612;2022-09-09T00:15:19;98311.69;;;18.57;100.00
21902;BME280;11115;46.038;14.612;2022-09-09T00:18:01;98304.84;;;18.55;100.00
21902;BME280;11115;46.038;14.612;2022-09-09T00:21:05;98304.88;;;18.39;100.00
21902;BME280;11115;46.038;14.612;2022-09-09T00:23:50;98313.06;;;18.47;100.00
21902;BME280;11115;46.038;14.612;2022-09-09T00:26:51;98313.69;;;18.57;100.00
21902;BME280;11115;46.038;14.612;2022-09-09T00:32:30;98301.72;;;18.40;100.00
21902;BME280;11115;46.038;14.612;2022-09-09T00:37:58;98297.53;;;18.50;100.00
21902;BME280;11115;46.038;14.612;2022-09-09T00:40:36;98295.53;;;18.50;100.00
21902;BME280;11115;46.038;14.612;2022-09-09T00:43:35;98309.47;;;18.47;100.00
21902;BME280;11115;46.038;14.612;2022-09-09T00:46:49;98307.91;;;18.49;100.00
21902;BME280;11115;46.038;14.612;2022-09-09T00:56:19;98304.16;;;18.42;100.00
21902;BME280;11115;46.038;14.612;2022-09-09T00:59:06;98306.78;;;18.35;100.00
21902;BME280;11115;46.038;14.612;2022-09-09T01:01:45;98310.06;;;18.21;100.00
21902;BME280;11115;46.038;14.612;2022-09-09T01:04:27;98313.38;;;18.27;100.00
21902;BME280;11115;46.038;14.612;2022-09-09T01:07:19;98313.47;;;18.30;100.00
21902;BME280;11115;46.038;14.612;2022-09-09T01:10:21;98314.53;;;18.41;100.00
21902;BME280;11115;46.038;14.612;2022-09-09T01:13:11;98315.34;;;18.42;100.00
21902;BME280;11115;46.038;14.612;2022-09-09T01:15:45;98316.81;;;18.36;100.00
21902;BME280;11115;46.038;14.612;2022-09-09T01:18:51;98316.56;;;18.25;100.00
21902;BME280;11115;46.038;14.612;2022-09-09T01:21:50;98319.19;;;18.34;100.00
21902;BME280;11115;46.038;14.612;2022-09-09T01:28:26;98290.47;;;18.05;100.00
21902;BME280;11115;46.038;14.612;2022-09-09T01:31:09;98298.78;;;18.17;100.00
21902;BME280;11115;46.038;14.612;2022-09-09T01:33:47;98300.56;;;18.26;100.00
21902;BME280;11115;46.038;14.612;2022-09-09T01:36:48;98308.38;;;18.16;100.00
21902;BME280;11115;46.038;14.612;2022-09-09T01:39:28;98303.13;;;17.99;100.00
21902;BME280;11115;46.038;14.612;2022-09-09T01:42:12;98311.81;;;17.94;100.00
21902;BME280;11115;46.038;14.612;2022-09-09T01:44:43;98313.78;;;18.09;100.00
21902;BME280;11115;46.038;14.612;2022-09-09T01:47:28;98309.72;;;18.07;100.00
21902;BME280;11115;46.038;14.612;2022-09-09T01:50:20;98298.50;;;18.07;100.00
21902;BME280;11115;46.038;14.612;2022-09-09T01:52:56;98294.75;;;17.99;100.00
21902;BME280;11115;46.038;14.612;2022-09-09T01:55:40;98316.03;;;18.04;100.00
21902;BME280;11115;46.038;14.612;2022-09-09T01:58:45;98315.16;;;18.00;100.00
21902;BME280;11115;46.038;14.612;2022-09-09T02:02:01;98313.50;;;18.14;100.00
21902;BME280;11115;46.038;14.612;2022-09-09T02:04:50;98312.06;;;18.05;100.00
21902;BME280;11115;46.038;14.612;2022-09-09T02:07:48;98313.69;;;18.22;100.00
21902;BME280;11115;46.038;14.612;2022-09-09T02:13:18;98306.53;;;18.24;100.00
21902;BME280;11115;46.038;14.612;2022-09-09T02:22:45;98310.97;;;18.09;100.00
21902;BME280;11115;46.038;14.612;2022-09-09T02:25:24;98304.22;;;17.95;100.00
21902;BME280;11115;46.038;14.612;2022-09-09T02:28:14;98314.94;;;17.93;100.00
21902;BME280;11115;46.038;14.612;2022-09-09T02:30:49;98311.63;;;17.87;100.00
21902;BME280;11115;46.038;14.612;2022-09-09T02:33:39;98300.22;;;17.64;100.00
21902;BME280;11115;46.038;14.612;2022-09-09T02:36:15;98302.16;;;17.76;100.00
21902;BME280;11115;46.038;14.612;2022-09-09T02:39:05;98304.91;;;17.60;100.00
21902;BME280;11115;46.038;14.612;2022-09-09T02:41:44;98299.47;;;17.51;100.00
21902;BME280;11115;46.038;14.612;2022-09-09T02:44:35;98295.06;;;17.50;100.00
21902;BME280;11115;46.038;14.612;2022-09-09T02:50:57;98314.53;;;17.47;100.00
21902;BME280;11115;46.038;14.612;2022-09-09T02:56:32;98308.88;;;17.59;100.00
21902;BME280;11115;46.038;14.612;2022-09-09T02:59:16;98307.06;;;17.67;100.00
21902;BME280;11115;46.038;14.612;2022-09-09T03:01:46;98306.25;;;17.50;100.00
21902;BME280;11115;46.038;14.612;2022-09-09T03:04:19;98304.63;;;17.49;100.00
21902;BME280;11115;46.038;14.612;2022-09-09T03:06:51;98303.00;;;17.48;100.00
21902;BME280;11115;46.038;14.612;2022-09-09T03:09:22;98308.59;;;17.48;100.00
21902;BME280;11115;46.038;14.612;2022-09-09T03:11:54;98305.50;;;17.38;100.00
21902;BME280;11115;46.038;14.612;2022-09-09T03:14:34;98308.84;;;17.43;100.00
21902;BME280;11115;46.038;14.612;2022-09-09T03:17:11;98305.88;;;17.52;100.00
21902;BME280;11115;46.038;14.612;2022-09-09T03:19:51;98302.03;;;17.56;100.00
21902;BME280;11115;46.038;14.612;2022-09-09T03:22:26;98298.16;;;17.61;100.00
21902;BME280;11115;46.038;14.612;2022-09-09T03:25:05;98286.75;;;17.54;100.00
21902;BME280;11115;46.038;14.612;2022-09-09T03:27:49;98293.16;;;17.54;100.00
21902;BME280;11115;46.038;14.612;2022-09-09T03:30:26;98296.97;;;17.62;100.00
21902;BME280;11115;46.038;14.612;2022-09-09T03:33:04;98288.16;;;17.76;100.00
21902;BME280;11115;46.038;14.612;2022-09-09T03:35:33;98288.94;;;17.60;100.00
21902;BME280;11115;46.038;14.612;2022-09-09T03:38:10;98300.56;;;17.63;100.00
21902;BME280;11115;46.038;14.612;2022-09-09T03:40:54;98297.84;;;17.50;100.00
21902;BME280;11115;46.038;14.612;2022-09-09T03:43:33;98298.97;;;17.62;100.00
21902;BME280;11115;46.038;14.612;2022-09-09T03:46:05;98294.09;;;17.58;100.00
21902;BME280;11115;46.038;14.612;2022-09-09T03:48:43;98297.03;;;17.50;100.00
21902;BME280;11115;46.038;14.612;2022-09-09T03:51:18;98300.56;;;17.63;100.00
21902;BME280;11115;46.038;14.612;2022-09-09T03:53:54;98300.66;;;17.66;100.00
21902;BME280;11115;46.038;14.612;2022-09-09T03:56:31;98304.63;;;17.65;100.00
21902;BME280;11115;46.038;14.612;2022-09-09T03:58:59;98299.84;;;17.66;100.00
21902;BME280;11115;46.038;14.612;2022-09-09T04:01:32;98302.25;;;17.79;100.00
21902;BME280;11115;46.038;14.612;2022-09-09T04:04:11;98297.53;;;17.68;100.00
21902;BME280;11115;46.038;14.612;2022-09-09T04:06:51;98301.97;;;17.69;100.00
21902;BME280;11115;46.038;14.612;2022-09-09T04:09:28;98301.47;;;17.67;100.00
21902;BME280;11115;46.038;14.612;2022-09-09T04:12:04;98302.75;;;17.69;100.00
21902;BME280;11115;46.038;14.612;2022-09-09T04:14:38;98294.63;;;17.64;100.00
21902;BME280;11115;46.038;14.612;2022-09-09T04:17:11;98286.75;;;17.54;100.00
21902;BME280;11115;46.038;14.612;2022-09-09T04:19:43;98310.59;;;17.64;100.00
21902;BME280;11115;46.038;14.612;2022-09-09T04:22:22;98311.53;;;17.68;100.00
21902;BME280;11115;46.038;14.612;2022-09-09T04:24:56;98311.44;;;17.80;100.00
21902;BME280;11115;46.038;14.612;2022-09-09T04:27:26;98296.44;;;17.72;100.00
21902;BME280;11115;46.038;14.612;2022-09-09T04:29:58;98309.09;;;17.82;100.00
21902;BME280;11115;46.038;14.612;2022-09-09T04:32:37;98300.78;;;17.70;100.00
21902;BME280;11115;46.038;14.612;2022-09-09T04:35:14;98290.47;;;17.58;100.00
21902;BME280;11115;46.038;14.612;2022-09-09T04:37:52;98317.94;;;17.68;100.00
21902;BME280;11115;46.038;14.612;2022-09-09T04:40:23;98320.25;;;17.66;100.00
21902;BME280;11115;46.038;14.612;2022-09-09T04:42:59;98315.75;;;17.62;100.00
21902;BME280;11115;46.038;14.612;2022-09-09T04:45:50;98313.75;;;17.62;100.00
21902;BME280;11115;46.038;14.612;2022-09-09T04:48:30;98306.16;;;17.63;100.00
21902;BME280;11115;46.038;14.612;2022-09-09T04:51:13;98305.56;;;17.69;100.00
21902;BME280;11115;46.038;14.612;2022-09-09T04:53:43;98304.97;;;17.76;100.00
21902;BME280;11115;46.038;14.612;2022-09-09T04:56:17;98309.63;;;17.72;100.00
21902;BME280;11115;46.038;14.612;2022-09-09T04:58:56;98295.19;;;17.70;100.00
21902;BME280;11115;46.038;14.612;2022-09-09T05:01:40;98307.47;;;17.81;100.00
21902;BME280;11115;46.038;14.612;2022-09-09T05:04:11;98306.84;;;17.87;100.00
21902;BME280;11115;46.038;14.612;2022-09-09T05:06:49;98310.63;;;17.79;100.00
21902;BME280;11115;46.038;14.612;2022-09-09T05:09:36;98311.91;;;17.82;100.00
21902;BME280;11115;46.038;14.612;2022-09-09T05:12:07;98317.22;;;17.87;100.00
21902;BME280;11115;46.038;14.612;2022-09-09T05:14:48;98313.88;;;17.81;100.00
21902;BME280;11115;46.038;14.612;2022-09-09T05:17:29;98312.16;;;17.93;100.00
21902;BME280;11115;46.038;14.612;2022-09-09T05:20:06;98309.63;;;18.03;100.00
21902;BME280;11115;46.038;14.612;2022-09-09T05:22:40;98302.50;;;17.90;100.00
21902;BME280;11115;46.038;14.612;2022-09-09T05:25:10;98309.47;;;17.96;100.00
21902;BME280;11115;46.038;14.612;2022-09-09T05:27:40;98317.66;;;17.89;100.00
21902;BME280;11115;46.038;14.612;2022-09-09T05:30:09;98312.25;;;17.96;100.00
21902;BME280;11115;46.038;14.612;2022-09-09T05:32:43;98306.47;;;18.05;100.00
21902;BME280;11115;46.038;14.612;2022-09-09T05:35:16;98304.13;;;18.07;100.00
21902;BME280;11115;46.038;14.612;2022-09-09T05:37:48;98321.09;;;18.14;100.00
21902;BME280;11115;46.038;14.612;2022-09-09T05:40:31;98306.31;;;17.98;100.00
21902;BME280;11115;46.038;14.612;2022-09-09T05:43:06;98323.44;;;18.12;100.00
21902;BME280;11115;46.038;14.612;2022-09-09T05:45:46;98327.31;;;18.07;100.00
21902;BME280;11115;46.038;14.612;2022-09-09T05:48:22;98329.22;;;18.19;100.00
21902;BME280;11115;46.038;14.612;2022-09-09T05:50:55;98330.69;;;18.13;100.00
21902;BME280;11115;46.038;14.612;2022-09-09T05:53:27;98333.28;;;18.22;100.00
21902;BME280;11115;46.038;14.612;2022-09-09T05:56:08;98334.00;;;18.18;100.00
21902;BME280;11115;46.038;14.612;2022-09-09T05:58:49;98334.81;;;18.19;100.00
21902;BME280;11115;46.038;14.612;2022-09-09T06:01:26;98332.47;;;18.21;100.00
21902;BME280;11115;46.038;14.612;2022-09-09T06:04:03;98331.00;;;18.27;100.00
21902;BME280;11115;46.038;14.612;2022-09-09T06:06:39;98323.84;;;18.30;100.00
21902;BME280;11115;46.038;14.612;2022-09-09T06:09:24;98319.72;;;18.24;100.00
21902;BME280;11115;46.038;14.612;2022-09-09T06:12:02;98316.75;;;18.16;100.00
21902;BME280;11115;46.038;14.612;2022-09-09T06:14:35;98317.94;;;18.15;100.00
21902;BME280;11115;46.038;14.612;2022-09-09T06:17:14;98329.38;;;18.10;100.00
21902;BME280;11115;46.038;14.612;2022-09-09T06:19:52;98328.94;;;18.24;100.00
21902;BME280;11115;46.038;14.612;2022-09-09T06:22:25;98332.72;;;18.32;100.00
21902;BME280;11115;46.038;14.612;2022-09-09T06:25:04;98328.84;;;18.20;100.00
21902;BME280;11115;46.038;14.612;2022-09-09T06:27:36;98322.50;;;18.39;100.00
21902;BME280;11115;46.038;14.612;2022-09-09T06:30:13;98328.34;;;18.50;100.00
21902;BME280;11115;46.038;14.612;2022-09-09T06:32:51;98331.13;;;18.50;100.00
21902;BME280;11115;46.038;14.612;2022-09-09T06:35:35;98331.59;;;18.52;100.00
21902;BME280;11115;46.038;14.612;2022-09-09T06:38:09;98333.56;;;18.67;100.00
21902;BME280;11115;46.038;14.612;2022-09-09T06:40:54;98300.75;;;18.68;100.00
21902;BME280;11115;46.038;14.612;2022-09-09T06:43:32;98311.78;;;18.96;100.00
21902;BME280;11115;46.038;14.612;2022-09-09T06:46:13;98300.13;;;18.94;100.00
21902;BME280;11115;46.038;14.612;2022-09-09T06:48:55;98308.16;;;19.15;100.00
21902;BME280;11115;46.038;14.612;2022-09-09T06:51:30;98299.69;;;18.92;100.00
21902;BME280;11115;46.038;14.612;2022-09-09T06:54:03;98301.06;;;19.01;100.00
21902;BME280;11115;46.038;14.612;2022-09-09T06:56:44;98297.81;;;18.99;100.00
21902;BME280;11115;46.038;14.612;2022-09-09T06:59:21;98254.69;;;18.85;100.00
21902;BME280;11115;46.038;14.612;2022-09-09T07:01:55;98295.75;;;19.16;100.00
21902;BME280;11115;46.038;14.612;2022-09-09T07:04:26;98294.19;;;19.37;100.00
21902;BME280;11115;46.038;14.612;2022-09-09T07:07:05;98282.78;;;19.50;100.00
21902;BME280;11115;46.038;14.612;2022-09-09T07:09:46;98288.19;;;19.58;100.00
21902;BME280;11115;46.038;14.612;2022-09-09T07:12:29;98280.41;;;19.71;100.00
21902;BME280;11115;46.038;14.612;2022-09-09T07:15:03;98290.16;;;20.04;100.00
21902;BME280;11115;46.038;14.612;2022-09-09T07:17:32;98301.28;;;20.23;100.00
21902;BME280;11115;46.038;14.612;2022-09-09T07:20:04;98309.81;;;20.53;100.00
21902;BME280;11115;46.038;14.612;2022-09-09T07:22:38;98282.25;;;20.09;100.00
21902;BME280;11115;46.038;14.612;2022-09-09T07:25:09;98291.19;;;19.92;100.00
21902;BME280;11115;46.038;14.612;2022-09-09T07:27:46;98291.03;;;20.08;100.00
21902;BME280;11115;46.038;14.612;2022-09-09T07:30:22;98296.72;;;20.11;100.00
21902;BME280;11115;46.038;14.612;2022-09-09T07:32:55;98297.19;;;20.17;100.00
21902;BME280;11115;46.038;14.612;2022-09-09T07:35:36;98299.47;;;20.34;100.00
21902;BME280;11115;46.038;14.612;2022-09-09T07:38:10;98302.09;;;20.46;100.00
21902;BME280;11115;46.038;14.612;2022-09-09T07:40:49;98287.16;;;20.42;100.00
21902;BME280;11115;46.038;14.612;2022-09-09T07:43:26;98298.78;;;20.67;100.00
21902;BME280;11115;46.038;14.612;2022-09-09T07:46:02;98314.13;;;20.73;100.00
21902;BME280;11115;46.038;14.612;2022-09-09T07:48:36;98307.66;;;20.69;100.00
21902;BME280;11115;46.038;14.612;2022-09-09T07:51:15;98297.44;;;20.87;100.00
21902;BME280;11115;46.038;14.612;2022-09-09T07:54:03;98302.56;;;20.82;100.00
21902;BME280;11115;46.038;14.612;2022-09-09T07:56:42;98313.91;;;21.19;100.00
21902;BME280;11115;46.038;14.612;2022-09-09T07:59:23;98292.53;;;20.81;100.00
21902;BME280;11115;46.038;14.612;2022-09-09T08:02:03;98297.91;;;20.93;100.00
21902;BME280;11115;46.038;14.612;2022-09-09T08:04:37;98291.25;;;21.05;100.00
21902;BME280;11115;46.038;14.612;2022-09-09T08:07:13;98292.94;;;21.13;100.00
21902;BME280;11115;46.038;14.612;2022-09-09T08:09:50;98297.41;;;21.17;100.00
21902;BME280;11115;46.038;14.612;2022-09-09T08:12:31;98289.94;;;21.29;100.00
21902;BME280;11115;46.038;14.612;2022-09-09T08:15:11;98285.94;;;21.30;100.00
21902;BME280;11115;46.038;14.612;2022-09-09T08:17:40;98274.09;;;21.50;100.00
21902;BME280;11115;46.038;14.612;2022-09-09T08:20:16;98284.00;;;21.37;100.00
21902;BME280;11115;46.038;14.612;2022-09-09T08:22:50;98288.72;;;21.26;100.00
21902;BME280;11115;46.038;14.612;2022-09-09T08:25:29;98295.34;;;21.11;100.00
21902;BME280;11115;46.038;14.612;2022-09-09T08:28:02;98283.91;;;20.97;100.00
21902;BME280;11115;46.038;14.612;2022-09-09T08:30:45;98298.25;;;20.88;100.00
21902;BME280;11115;46.038;14.612;2022-09-09T08:33:23;98312.16;;;21.07;100.00
21902;BME280;11115;46.038;14.612;2022-09-09T08:35:55;98301.53;;;20.94;100.00
21902;BME280;11115;46.038;14.612;2022-09-09T08:38:32;98313.56;;;20.90;100.00
21902;BME280;11115;46.038;14.612;2022-09-09T08:47:47;98258.72;;;20.74;100.00
21902;BME280;11115;46.038;14.612;2022-09-09T08:50:35;98287.56;;;21.01;100.00
21902;BME280;11115;46.038;14.612;2022-09-09T08:53:27;98279.34;;;20.85;100.00
21902;BME280;11115;46.038;14.612;2022-09-09T08:56:21;98277.41;;;20.63;100.00
21902;BME280;11115;46.038;14.612;2022-09-09T08:59:01;98268.91;;;20.85;100.00
21902;BME280;11115;46.038;14.612;2022-09-09T09:02:03;98275.78;;;20.88;100.00
21902;BME280;11115;46.038;14.612;2022-09-09T09:05:07;98271.75;;;20.89;100.00
21902;BME280;11115;46.038;14.612;2022-09-09T09:11:15;98259.50;;;21.04;100.00
21902;BME280;11115;46.038;14.612;2022-09-09T09:14:03;98266.81;;;21.12;100.00
21902;BME280;11115;46.038;14.612;2022-09-09T09:17:21;98265.28;;;21.18;100.00
21902;BME280;11115;46.038;14.612;2022-09-09T09:19:58;98263.34;;;21.23;100.00
21902;BME280;11115;46.038;14.612;2022-09-09T09:22:55;98266.03;;;21.15;100.00
21902;BME280;11115;46.038;14.612;2022-09-09T09:25:43;98255.22;;;21.17;100.00
21902;BME280;11115;46.038;14.612;2022-09-09T09:28:40;98270.69;;;21.31;100.00
21902;BME280;11115;46.038;14.612;2022-09-09T09:31:19;98276.31;;;21.31;100.00
21902;BME280;11115;46.038;14.612;2022-09-09T09:33:58;98280.38;;;21.37;100.00
21902;BME280;11115;46.038;14.612;2022-09-09T09:36:40;98282.88;;;21.42;100.00
21902;BME280;11115;46.038;14.612;2022-09-09T09:39:32;98289.31;;;21.42;100.00
21902;BME280;11115;46.038;14.612;2022-09-09T09:42:29;98283.69;;;21.42;100.00
21902;BME280;11115;46.038;14.612;2022-09-09T09:45:25;98269.91;;;21.34;100.00
21902;BME280;11115;46.038;14.612;2022-09-09T09:48:13;98245.16;;;21.16;100.00
21902;BME280;11115;46.038;14.612;2022-09-09T09:51:09;98255.22;;;21.17;100.00
21902;BME280;11115;46.038;14.612;2022-09-09T09:53:44;98246.78;;;21.17;100.00
21902;BME280;11115;46.038;14.612;2022-09-09T09:56:14;98239.47;;;21.09;100.00
21902;BME280;11115;46.038;14.612;2022-09-09T10:01:32;98238.09;;;20.96;100.00
21902;BME280;11115;46.038;14.612;2022-09-09T10:04:22;98241.56;;;20.82;100.00
21902;BME280;11115;46.038;14.612;2022-09-09T10:06:58;98243.66;;;20.89;100.00
21902;BME280;11115;46.038;14.612;2022-09-09T10:09:34;98265.22;;;20.81;100.00
21902;BME280;11115;46.038;14.612;2022-09-09T10:13:06;98257.56;;;20.78;100.00
21902;BME280;11115;46.038;14.612;2022-09-09T10:19:03;98241.88;;;20.77;100.00
21902;BME280;11115;46.038;14.612;2022-09-09T10:28:13;98279.50;;;20.66;100.00
21902;BME280;11115;46.038;14.612;2022-09-09T10:31:19;98281.38;;;20.58;100.00
21902;BME280;11115;46.038;14.612;2022-09-09T10:36:59;98276.81;;;20.46;100.00
21902;BME280;11115;46.038;14.612;2022-09-09T10:39:38;98280.66;;;20.38;100.00
21902;BME280;11115;46.038;14.612;2022-09-09T10:42:15;98273.00;;;20.35;100.00
21902;BME280;11115;46.038;14.612;2022-09-09T10:56:37;98231.31;;;20.11;100.00
21902;BME280;11115;46.038;14.612;2022-09-09T10:59:31;98242.97;;;20.13;100.00
21902;BME280;11115;46.038;14.612;2022-09-09T11:02:21;98227.53;;;19.99;100.00
21902;BME280;11115;46.038;14.612;2022-09-09T11:05:08;98230.81;;;20.05;100.00
21902;BME280;11115;46.038;14.612;2022-09-09T11:08:12;98227.13;;;20.01;100.00
21902;BME280;11115;46.038;14.612;2022-09-09T11:11:12;98233.28;;;19.84;100.00
21902;BME280;11115;46.038;14.612;2022-09-09T11:17:26;98278.22;;;19.41;100.00
21902;BME280;11115;46.038;14.612;2022-09-09T11:20:01;98275.06;;;19.24;100.00
21902;BME280;11115;46.038;14.612;2022-09-09T11:22:54;98290.81;;;19.28;100.00
21902;BME280;11115;46.038;14.612;2022-09-09T11:25:38;98300.09;;;19.32;100.00
21902;BME280;11115;46.038;14.612;2022-09-09T11:37:54;98316.06;;;18.90;100.00
21902;BME280;11115;46.038;14.612;2022-09-09T11:40:40;98325.47;;;18.82;100.00
21902;BME280;11115;46.038;14.612;2022-09-09T11:43:12;98328.53;;;18.92;100.00
21902;BME280;11115;46.038;14.612;2022-09-09T11:45:57;98316.13;;;18.74;100.00
21902;BME280;11115;46.038;14.612;2022-09-09T11:48:40;98322.81;;;18.89;100.00
21902;BME280;11115;46.038;14.612;2022-09-09T11:54:29;98311.16;;;18.87;100.00
21902;BME280;11115;46.038;14.612;2022-09-09T11:56:57;98306.75;;;18.86;100.00
21902;BME280;11115;46.038;14.612;2022-09-09T11:59:33;98297.47;;;19.01;100.00
21902;BME280;11115;46.038;14.612;2022-09-09T12:02:27;98289.34;;;18.96;100.00
21902;BME280;11115;46.038;14.612;2022-09-09T12:05:11;98294.44;;;19.09;100.00
21902;BME280;11115;46.038;14.612;2022-09-09T12:07:56;98305.09;;;19.23;100.00
21902;BME280;11115;46.038;14.612;2022-09-09T12:10:40;98301.00;;;19.17;100.00
21902;BME280;11115;46.038;14.612;2022-09-09T12:13:24;98287.19;;;18.89;100.00
21902;BME280;11115;46.038;14.612;2022-09-09T12:15:59;98286.03;;;18.90;100.00
21902;BME280;11115;46.038;14.612;2022-09-09T12:18:34;98300.41;;;18.89;100.00
21902;BME280;11115;46.038;14.612;2022-09-09T12:21:33;98297.59;;;18.89;100.00
21902;BME280;11115;46.038;14.612;2022-09-09T12:25:12;98306.91;;;18.73;100.00
21902;BME280;11115;46.038;14.612;2022-09-09T12:27:44;98304.63;;;18.98;100.00
21902;BME280;11115;46.038;14.612;2022-09-09T12:30:17;98288.59;;;18.79;100.00
21902;BME280;11115;46.038;14.612;2022-09-09T12:33:09;98288.03;;;19.09;100.00
21902;BME280;11115;46.038;14.612;2022-09-09T12:35:53;98283.75;;;18.96;100.00
21902;BME280;11115;46.038;14.612;2022-09-09T12:38:36;98286.47;;;19.12;100.00
21902;BME280;11115;46.038;14.612;2022-09-09T12:41:27;98277.41;;;19.41;100.00
21902;BME280;11115;46.038;14.612;2022-09-09T12:44:09;98275.88;;;19.66;100.00
21902;BME280;11115;46.038;14.612;2022-09-09T12:46:48;98266.72;;;20.19;100.00
21902;BME280;11115;46.038;14.612;2022-09-09T12:49:35;98242.94;;;22.83;100.00
21902;BME280;11115;46.038;14.612;2022-09-09T12:52:37;98226.06;;;25.63;100.00
21902;BME280;11115;46.038;14.612;2022-09-09T12:55:19;98191.47;;;23.29;100.00
21902;BME280;11115;46.038;14.612;2022-09-09T12:57:57;98203.31;;;21.96;100.00
21902;BME280;11115;46.038;14.612;2022-09-09T13:00:36;98218.63;;;21.51;100.00
21902;BME280;11115;46.038;14.612;2022-09-09T13:03:17;98202.00;;;21.79;100.00
21902;BME280;11115;46.038;14.612;2022-09-09T13:05:50;98197.88;;;21.70;100.00
21902;BME280;11115;46.038;14.612;2022-09-09T13:08:25;98209.38;;;22.60;100.00
21902;BME280;11115;46.038;14.612;2022-09-09T13:11:43;98193.16;;;23.83;100.00
21902;BME280;11115;46.038;14.612;2022-09-09T13:14:35;98193.03;;;22.98;100.00
21902;BME280;11115;46.038;14.612;2022-09-09T13:17:40;98186.69;;;23.65;100.00
21902;BME280;11115;46.038;14.612;2022-09-09T13:20:17;98188.03;;;22.66;100.00
21902;BME280;11115;46.038;14.612;2022-09-09T13:22:53;98187.84;;;22.27;100.00
21902;BME280;11115;46.038;14.612;2022-09-09T13:25:31;98173.91;;;21.90;100.00
21902;BME280;11115;46.038;14.612;2022-09-09T13:28:22;98170.97;;;21.76;100.00
21902;BME280;11115;46.038;14.612;2022-09-09T13:31:19;98174.63;;;22.38;100.00
21902;BME280;11115;46.038;14.612;2022-09-09T13:33:48;98156.38;;;23.01;100.00
21902;BME280;11115;46.038;14.612;2022-09-09T13:36:31;98151.81;;;22.72;100.00
21902;BME280;11115;46.038;14.612;2022-09-09T13:39:19;98147.69;;;22.45;100.00
21902;BME280;11115;46.038;14.612;2022-09-09T13:41:53;98137.97;;;21.73;100.00
21902;BME280;11115;46.038;14.612;2022-09-09T13:44:29;98150.25;;;22.02;100.00
21902;BME280;11115;46.038;14.612;2022-09-09T13:47:26;98147.38;;;22.67;100.00
21902;BME280;11115;46.038;14.612;2022-09-09T13:50:23;98144.38;;;22.25;100.00
21902;BME280;11115;46.038;14.612;2022-09-09T13:52:59;98143.28;;;21.81;100.00
21902;BME280;11115;46.038;14.612;2022-09-09T13:55:45;98126.91;;;21.02;100.00
21902;BME280;11115;46.038;14.612;2022-09-09T13:58:19;98149.91;;;21.15;100.00
21902;BME280;11115;46.038;14.612;2022-09-09T14:00:55;98150.63;;;21.05;100.00
21902;BME280;11115;46.038;14.612;2022-09-09T14:03:24;98144.59;;;21.03;100.00
21902;BME280;11115;46.038;14.612;2022-09-09T14:05:55;98138.50;;;20.97;100.00
21902;BME280;11115;46.038;14.612;2022-09-09T14:08:27;98140.19;;;21.05;100.00
21902;BME280;11115;46.038;14.612;2022-09-09T14:11:11;98141.66;;;20.92;100.00
21902;BME280;11115;46.038;14.612;2022-09-09T14:13:44;98144.09;;;20.94;100.00
21902;BME280;11115;46.038;14.612;2022-09-09T14:16:13;98144.81;;;20.87;100.00
21902;BME280;11115;46.038;14.612;2022-09-09T14:18:46;98155.34;;;20.94;100.00
21902;BME280;11115;46.038;14.612;2022-09-09T14:21:17;98156.50;;;20.89;100.00
21902;BME280;11115;46.038;14.612;2022-09-09T14:23:50;98148.44;;;20.87;100.00
21902;BME280;11115;46.038;14.612;2022-09-09T14:26:36;98154.28;;;20.72;100.00
21902;BME280;11115;46.038;14.612;2022-09-09T14:29:13;98149.50;;;20.76;100.00
21902;BME280;11115;46.038;14.612;2022-09-09T14:32:15;98144.34;;;20.44;100.00
21902;BME280;11115;46.038;14.612;2022-09-09T14:34:56;98151.31;;;20.57;100.00
21902;BME280;11115;46.038;14.612;2022-09-09T14:37:29;98151.13;;;20.77;100.00
21902;BME280;11115;46.038;14.612;2022-09-09T14:40:02;98158.47;;;20.85;100.00
21902;BME280;11115;46.038;14.612;2022-09-09T14:42:34;98159.13;;;20.75;100.00
21902;BME280;11115;46.038;14.612;2022-09-09T14:45:11;98163.88;;;20.67;100.00
21902;BME280;11115;46.038;14.612;2022-09-09T14:47:55;98171.44;;;20.33;100.00
21902;BME280;11115;46.038;14.612;2022-09-09T14:50:47;98168.97;;;20.28;100.00
21902;BME280;11115;46.038;14.612;2022-09-09T14:53:26;98172.16;;;20.56;100.00
21902;BME280;11115;46.038;14.612;2022-09-09T14:56:10;98162.81;;;21.19;100.00
21902;BME280;11115;46.038;14.612;2022-09-09T14:58:42;98149.38;;;22.67;100.00
21902;BME280;11115;46.038;14.612;2022-09-09T15:01:12;98131.38;;;24.03;100.00
21902;BME280;11115;46.038;14.612;2022-09-09T15:03:52;98137.44;;;23.06;100.00
21902;BME280;11115;46.038;14.612;2022-09-09T15:06:29;98123.72;;;23.00;100.00
21902;BME280;11115;46.038;14.612;2022-09-09T15:09:00;98104.59;;;25.24;100.00
21902;BME280;11115;46.038;14.612;2022-09-09T15:11:34;98114.91;;;24.89;100.00
21902;BME280;11115;46.038;14.612;2022-09-09T15:14:14;98123.78;;;23.68;100.00
21902;BME280;11115;46.038;14.612;2022-09-09T15:16:41;98124.09;;;24.09;100.00
21902;BME280;11115;46.038;14.612;2022-09-09T15:19:23;98115.41;;;22.31;100.00